sensor_id;sensor_type;location;lat;lon;timestamp;temperature;humidity
41324;DHT22;27073;51.128;4.220;2023-04-05T00:01:23;8.30;34.50
41324;DHT22;27073;51.128;4.220;2023-04-05T00:03:58;8.30;99.90
41324;DHT22;27073;51.128;4.220;2023-04-05T00:06:25;8.20;99.90
41324;DHT22;27073;51.128;4.220;2023-04-05T00:08:51;8.10;99.90
41324;DHT22;27073;51.128;4.220;2023-04-05T00:11:24;8.00;99.90
41324;DHT22;27073;51.128;4.220;2023-04-05T00:13:50;7.80;99.90
41324;DHT22;27073;51.128;4.220;2023-04-05T00:16:16;7.80;99.90
41324;DHT22;27073;51.128;4.220;2023-04-05T00:18:43;7.90;99.90
41324;DHT22;27073;51.128;4.220;2023-04-05T00:21:20;8.00;99.90
41324;DHT22;27073;51.128;4.220;2023-04-05T00:23:55;8.00;99.90
41324;DHT22;27073;51.128;4.220;2023-04-05T00:26:23;8.10;99.90
41324;DHT22;27073;51.128;4.220;2023-04-05T00:28:53;8.20;99.90
41324;DHT22;27073;51.128;4.220;2023-04-05T00:31:19;8.10;99.90
41324;DHT22;27073;51.128;4.220;2023-04-05T00:33:45;8.10;99.90
41324;DHT22;27073;51.128;4.220;2023-04-05T00:36:15;7.90;99.90
41324;DHT22;27073;51.128;4.220;2023-04-05T00:38:43;7.80;99.90
41324;DHT22;27073;51.128;4.220;2023-04-05T00:41:10;7.80;99.90
41324;DHT22;27073;51.128;4.220;2023-04-05T00:43:36;7.80;99.90
41324;DHT22;27073;51.128;4.220;2023-04-05T00:46:01;7.50;99.90
41324;DHT22;27073;51.128;4.220;2023-04-05T00:48:28;7.40;99.90
41324;DHT22;27073;51.128;4.220;2023-04-05T00:50:54;7.40;99.90
41324;DHT22;27073;51.128;4.220;2023-04-05T00:53:20;7.50;99.90
41324;DHT22;27073;51.128;4.220;2023-04-05T00:55:47;7.60;99.90
41324;DHT22;27073;51.128;4.220;2023-04-05T00:58:17;7.70;99.90
41324;DHT22;27073;51.128;4.220;2023-04-05T01:01:09;7.60;99.90
41324;DHT22;27073;51.128;4.220;2023-04-05T01:03:42;7.60;99.90
41324;DHT22;27073;51.128;4.220;2023-04-05T01:09:04;7.60;99.90
41324;DHT22;27073;51.128;4.220;2023-04-05T01:11:33;7.50;99.90
41324;DHT22;27073;51.128;4.220;2023-04-05T01:14:02;7.50;99.90
41324;DHT22;27073;51.128;4.220;2023-04-05T01:16:28;7.50;99.90
41324;DHT22;27073;51.128;4.220;2023-04-05T01:18:54;7.50;99.90
41324;DHT22;27073;51.128;4.220;2023-04-05T01:37:37;7.00;1.00
41324;DHT22;27073;51.128;4.220;2023-04-05T01:40:05;7.10;1.00
41324;DHT22;27073;51.128;4.220;2023-04-05T01:42:31;7.10;1.00
41324;DHT22;27073;51.128;4.220;2023-04-05T01:44:57;7.00;1.00
41324;DHT22;27073;51.128;4.220;2023-04-05T01:47:23;7.10;1.00
41324;DHT22;27073;51.128;4.220;2023-04-05T01:49:49;7.10;1.00
41324;DHT22;27073;51.128;4.220;2023-04-05T01:52:15;7.10;1.00
41324;DHT22;27073;51.128;4.220;2023-04-05T01:54:42;7.00;1.00
41324;DHT22;27073;51.128;4.220;2023-04-05T01:57:08;6.90;1.00
41324;DHT22;27073;51.128;4.220;2023-04-05T01:59:33;6.90;1.00
41324;DHT22;27073;51.128;4.220;2023-04-05T02:01:59;6.90;1.00
41324;DHT22;27073;51.128;4.220;2023-04-05T02:04:26;6.90;1.00
41324;DHT22;27073;51.128;4.220;2023-04-05T02:06:52;6.90;1.00
41324;DHT22;27073;51.128;4.220;2023-04-05T02:09:18;6.90;1.00
41324;DHT22;27073;51.128;4.220;2023-04-05T02:11:44;6.80;1.00
41324;DHT22;27073;51.128;4.220;2023-04-05T02:14:10;6.80;1.00
41324;DHT22;27073;51.128;4.220;2023-04-05T02:16:36;6.90;1.00
41324;DHT22;27073;51.128;4.220;2023-04-05T02:19:02;6.90;1.00
41324;DHT22;27073;51.128;4.220;2023-04-05T02:21:28;6.80;1.00
41324;DHT22;27073;51.128;4.220;2023-04-05T02:23:56;6.60;1.00
41324;DHT22;27073;51.128;4.220;2023-04-05T02:26:22;6.50;1.00
41324;DHT22;27073;51.128;4.220;2023-04-05T02:28:47;6.30;1.00
41324;DHT22;27073;51.128;4.220;2023-04-05T02:31:13;6.30;1.00
41324;DHT22;27073;51.128;4.220;2023-04-05T02:33:41;6.30;1.00
41324;DHT22;27073;51.128;4.220;2023-04-05T02:36:09;6.40;1.00
41324;DHT22;27073;51.128;4.220;2023-04-05T02:38:35;6.40;1.00
41324;DHT22;27073;51.128;4.220;2023-04-05T02:41:01;6.50;1.00
41324;DHT22;27073;51.128;4.220;2023-04-05T02:43:27;6.30;1.00
41324;DHT22;27073;51.128;4.220;2023-04-05T02:45:53;6.30;1.00
41324;DHT22;27073;51.128;4.220;2023-04-05T02:48:18;6.40;1.00
41324;DHT22;27073;51.128;4.220;2023-04-05T02:50:49;6.50;1.00
41324;DHT22;27073;51.128;4.220;2023-04-05T02:53:16;6.60;1.00
41324;DHT22;27073;51.128;4.220;2023-04-05T02:55:42;6.60;1.00
41324;DHT22;27073;51.128;4.220;2023-04-05T02:58:08;6.50;1.00
41324;DHT22;27073;51.128;4.220;2023-04-05T03:00:39;6.50;1.00
41324;DHT22;27073;51.128;4.220;2023-04-05T03:03:06;6.50;1.00
41324;DHT22;27073;51.128;4.220;2023-04-05T03:05:35;6.40;1.00
41324;DHT22;27073;51.128;4.220;2023-04-05T03:08:01;6.20;1.00
41324;DHT22;27073;51.128;4.220;2023-04-05T03:10:30;6.30;1.00
41324;DHT22;27073;51.128;4.220;2023-04-05T03:13:04;6.20;1.00
41324;DHT22;27073;51.128;4.220;2023-04-05T03:15:31;6.20;1.00
41324;DHT22;27073;51.128;4.220;2023-04-05T03:18:01;6.20;1.00
41324;DHT22;27073;51.128;4.220;2023-04-05T03:20:27;6.20;1.00
41324;DHT22;27073;51.128;4.220;2023-04-05T03:22:57;6.20;1.00
41324;DHT22;27073;51.128;4.220;2023-04-05T03:25:28;6.20;1.00
41324;DHT22;27073;51.128;4.220;2023-04-05T03:27:53;6.20;1.00
41324;DHT22;27073;51.128;4.220;2023-04-05T03:30:24;6.10;1.00
41324;DHT22;27073;51.128;4.220;2023-04-05T03:32:55;6.20;1.90
41324;DHT22;27073;51.128;4.220;2023-04-05T03:35:43;6.20;1.00
41324;DHT22;27073;51.128;4.220;2023-04-05T03:38:10;6.20;1.00
41324;DHT22;27073;51.128;4.220;2023-04-05T03:40:42;6.10;1.00
41324;DHT22;27073;51.128;4.220;2023-04-05T03:43:09;6.20;1.00
41324;DHT22;27073;51.128;4.220;2023-04-05T03:45:36;6.10;3.60
41324;DHT22;27073;51.128;4.220;2023-04-05T03:48:02;6.20;1.00
41324;DHT22;27073;51.128;4.220;2023-04-05T03:50:28;6.10;1.00
41324;DHT22;27073;51.128;4.220;2023-04-05T03:52:54;6.10;1.00
41324;DHT22;27073;51.128;4.220;2023-04-05T03:55:20;6.00;1.00
41324;DHT22;27073;51.128;4.220;2023-04-05T03:57:48;6.00;1.00
41324;DHT22;27073;51.128;4.220;2023-04-05T04:00:27;6.00;4.40
41324;DHT22;27073;51.128;4.220;2023-04-05T04:03:08;6.10;1.00
41324;DHT22;27073;51.128;4.220;2023-04-05T04:05:38;6.00;4.00
41324;DHT22;27073;51.128;4.220;2023-04-05T04:08:05;6.00;9.20
41324;DHT22;27073;51.128;4.220;2023-04-05T04:10:31;5.90;8.80
41324;DHT22;27073;51.128;4.220;2023-04-05T04:12:57;6.00;11.40
41324;DHT22;27073;51.128;4.220;2023-04-05T04:15:27;6.00;10.80
41324;DHT22;27073;51.128;4.220;2023-04-05T04:18:19;6.00;11.10
41324;DHT22;27073;51.128;4.220;2023-04-05T04:21:03;5.90;14.80
41324;DHT22;27073;51.128;4.220;2023-04-05T04:23:48;6.00;11.60
41324;DHT22;27073;51.128;4.220;2023-04-05T04:26:32;6.00;13.80
41324;DHT22;27073;51.128;4.220;2023-04-05T04:29:20;6.00;11.10
41324;DHT22;27073;51.128;4.220;2023-04-05T04:32:17;6.00;13.30
41324;DHT22;27073;51.128;4.220;2023-04-05T04:35:22;6.10;16.10
41324;DHT22;27073;51.128;4.220;2023-04-05T04:38:08;6.00;18.00
41324;DHT22;27073;51.128;4.220;2023-04-05T04:40:43;6.00;17.50
41324;DHT22;27073;51.128;4.220;2023-04-05T04:43:35;6.10;19.90
41324;DHT22;27073;51.128;4.220;2023-04-05T04:46:14;6.10;18.80
41324;DHT22;27073;51.128;4.220;2023-04-05T04:49:15;6.10;20.50
41324;DHT22;27073;51.128;4.220;2023-04-05T04:51:46;6.00;19.30
41324;DHT22;27073;51.128;4.220;2023-04-05T04:54:11;5.90;19.20
41324;DHT22;27073;51.128;4.220;2023-04-05T04:56:37;5.90;20.00
41324;DHT22;27073;51.128;4.220;2023-04-05T04:59:03;5.90;21.20
41324;DHT22;27073;51.128;4.220;2023-04-05T05:01:29;5.90;23.10
41324;DHT22;27073;51.128;4.220;2023-04-05T05:03:55;5.80;22.40
41324;DHT22;27073;51.128;4.220;2023-04-05T05:06:28;5.90;20.10
41324;DHT22;27073;51.128;4.220;2023-04-05T05:08:54;6.00;17.20
41324;DHT22;27073;51.128;4.220;2023-04-05T05:11:20;5.90;12.10
41324;DHT22;27073;51.128;4.220;2023-04-05T05:13:46;5.80;20.20
41324;DHT22;27073;51.128;4.220;2023-04-05T05:16:18;5.70;20.70
41324;DHT22;27073;51.128;4.220;2023-04-05T05:18:46;5.80;20.90
41324;DHT22;27073;51.128;4.220;2023-04-05T05:21:13;5.80;18.30
41324;DHT22;27073;51.128;4.220;2023-04-05T05:23:38;5.80;18.20
41324;DHT22;27073;51.128;4.220;2023-04-05T05:26:04;5.80;23.20
41324;DHT22;27073;51.128;4.220;2023-04-05T05:28:30;5.90;20.90
41324;DHT22;27073;51.128;4.220;2023-04-05T05:30:56;5.80;24.10
41324;DHT22;27073;51.128;4.220;2023-04-05T05:33:22;5.90;27.30
41324;DHT22;27073;51.128;4.220;2023-04-05T05:35:49;5.90;26.30
41324;DHT22;27073;51.128;4.220;2023-04-05T05:38:16;5.90;24.60
41324;DHT22;27073;51.128;4.220;2023-04-05T05:40:43;5.90;23.60
41324;DHT22;27073;51.128;4.220;2023-04-05T05:43:08;5.80;22.10
41324;DHT22;27073;51.128;4.220;2023-04-05T05:45:40;5.90;24.50
41324;DHT22;27073;51.128;4.220;2023-04-05T05:48:06;5.90;24.50
41324;DHT22;27073;51.128;4.220;2023-04-05T05:50:32;6.00;21.90
41324;DHT22;27073;51.128;4.220;2023-04-05T05:52:58;6.10;19.60
41324;DHT22;27073;51.128;4.220;2023-04-05T05:55:23;6.10;24.70
41324;DHT22;27073;51.128;4.220;2023-04-05T05:57:49;6.20;27.20
41324;DHT22;27073;51.128;4.220;2023-04-05T06:00:18;6.30;26.70
41324;DHT22;27073;51.128;4.220;2023-04-05T06:02:44;6.40;23.70
41324;DHT22;27073;51.128;4.220;2023-04-05T06:05:10;6.40;21.90
41324;DHT22;27073;51.128;4.220;2023-04-05T06:07:36;6.50;21.60
41324;DHT22;27073;51.128;4.220;2023-04-05T06:10:03;6.50;17.50
41324;DHT22;27073;51.128;4.220;2023-04-05T06:12:30;6.50;22.90
41324;DHT22;27073;51.128;4.220;2023-04-05T06:14:55;6.60;22.80
41324;DHT22;27073;51.128;4.220;2023-04-05T06:17:21;6.60;22.90
41324;DHT22;27073;51.128;4.220;2023-04-05T06:19:47;6.60;24.00
41324;DHT22;27073;51.128;4.220;2023-04-05T06:22:12;6.60;24.40
41324;DHT22;27073;51.128;4.220;2023-04-05T06:24:38;6.70;24.60
41324;DHT22;27073;51.128;4.220;2023-04-05T06:27:03;6.70;26.00
41324;DHT22;27073;51.128;4.220;2023-04-05T06:29:29;6.80;25.80
41324;DHT22;27073;51.128;4.220;2023-04-05T06:31:55;6.80;25.20
41324;DHT22;27073;51.128;4.220;2023-04-05T06:34:21;7.00;26.50
41324;DHT22;27073;51.128;4.220;2023-04-05T06:36:47;7.10;25.70
41324;DHT22;27073;51.128;4.220;2023-04-05T06:39:12;7.10;24.50
41324;DHT22;27073;51.128;4.220;2023-04-05T06:41:39;7.20;25.60
41324;DHT22;27073;51.128;4.220;2023-04-05T06:44:05;7.20;19.40
41324;DHT22;27073;51.128;4.220;2023-04-05T06:46:30;7.30;16.10
41324;DHT22;27073;51.128;4.220;2023-04-05T06:48:57;7.40;10.50
41324;DHT22;27073;51.128;4.220;2023-04-05T06:51:23;7.10;6.50
41324;DHT22;27073;51.128;4.220;2023-04-05T06:53:51;7.00;19.00
41324;DHT22;27073;51.128;4.220;2023-04-05T06:56:16;7.10;16.60
41324;DHT22;27073;51.128;4.220;2023-04-05T06:58:42;7.20;11.20
41324;DHT22;27073;51.128;4.220;2023-04-05T07:01:08;7.40;1.00
41324;DHT22;27073;51.128;4.220;2023-04-05T07:03:35;7.50;1.00
41324;DHT22;27073;51.128;4.220;2023-04-05T07:06:01;7.60;1.00
41324;DHT22;27073;51.128;4.220;2023-04-05T07:08:29;7.60;1.00
41324;DHT22;27073;51.128;4.220;2023-04-05T07:10:55;7.50;1.00
41324;DHT22;27073;51.128;4.220;2023-04-05T07:13:22;7.00;1.00
41324;DHT22;27073;51.128;4.220;2023-04-05T07:15:48;7.30;1.00
41324;DHT22;27073;51.128;4.220;2023-04-05T07:18:14;7.40;1.00
41324;DHT22;27073;51.128;4.220;2023-04-05T07:20:46;7.60;1.00
41324;DHT22;27073;51.128;4.220;2023-04-05T07:23:12;7.70;1.00
41324;DHT22;27073;51.128;4.220;2023-04-05T07:25:41;7.90;1.00
41324;DHT22;27073;51.128;4.220;2023-04-05T07:28:07;7.70;1.00
41324;DHT22;27073;51.128;4.220;2023-04-05T07:30:33;7.20;1.00
41324;DHT22;27073;51.128;4.220;2023-04-05T07:32:58;7.40;1.00
41324;DHT22;27073;51.128;4.220;2023-04-05T07:35:24;7.60;1.00
41324;DHT22;27073;51.128;4.220;2023-04-05T07:37:50;7.40;1.00
41324;DHT22;27073;51.128;4.220;2023-04-05T07:40:16;7.50;1.00
41324;DHT22;27073;51.128;4.220;2023-04-05T07:42:42;7.20;1.00
41324;DHT22;27073;51.128;4.220;2023-04-05T07:45:08;7.40;1.00
41324;DHT22;27073;51.128;4.220;2023-04-05T07:47:34;7.70;1.00
41324;DHT22;27073;51.128;4.220;2023-04-05T07:50:00;7.90;1.00
41324;DHT22;27073;51.128;4.220;2023-04-05T07:52:26;7.90;1.00
41324;DHT22;27073;51.128;4.220;2023-04-05T07:54:52;8.00;1.00
41324;DHT22;27073;51.128;4.220;2023-04-05T07:57:18;8.10;1.00
41324;DHT22;27073;51.128;4.220;2023-04-05T07:59:44;8.00;99.90
41324;DHT22;27073;51.128;4.220;2023-04-05T08:02:10;8.20;99.90
41324;DHT22;27073;51.128;4.220;2023-04-05T08:04:36;8.50;99.90
41324;DHT22;27073;51.128;4.220;2023-04-05T08:07:02;8.60;99.90
41324;DHT22;27073;51.128;4.220;2023-04-05T08:09:28;8.30;99.90
41324;DHT22;27073;51.128;4.220;2023-04-05T08:11:54;8.00;99.90
41324;DHT22;27073;51.128;4.220;2023-04-05T08:14:22;7.80;99.90
41324;DHT22;27073;51.128;4.220;2023-04-05T08:16:48;8.00;99.90
41324;DHT22;27073;51.128;4.220;2023-04-05T08:19:15;8.20;99.90
41324;DHT22;27073;51.128;4.220;2023-04-05T08:21:41;8.10;38.30
41324;DHT22;27073;51.128;4.220;2023-04-05T08:24:07;7.90;1.00
41324;DHT22;27073;51.128;4.220;2023-04-05T08:26:33;8.00;99.90
41324;DHT22;27073;51.128;4.220;2023-04-05T08:28:58;7.90;1.00
41324;DHT22;27073;51.128;4.220;2023-04-05T08:31:24;8.20;72.00
41324;DHT22;27073;51.128;4.220;2023-04-05T08:33:50;8.20;1.00
41324;DHT22;27073;51.128;4.220;2023-04-05T08:36:16;8.40;99.90
41324;DHT22;27073;51.128;4.220;2023-04-05T08:38:42;8.40;1.00
41324;DHT22;27073;51.128;4.220;2023-04-05T08:41:17;8.40;99.90
41324;DHT22;27073;51.128;4.220;2023-04-05T08:43:56;8.40;99.90
41324;DHT22;27073;51.128;4.220;2023-04-05T08:46:25;8.30;99.90
41324;DHT22;27073;51.128;4.220;2023-04-05T08:48:52;8.30;21.70
41324;DHT22;27073;51.128;4.220;2023-04-05T08:51:21;8.50;1.00
41324;DHT22;27073;51.128;4.220;2023-04-05T08:53:48;8.60;99.90
41324;DHT22;27073;51.128;4.220;2023-04-05T08:56:30;8.60;99.90
41324;DHT22;27073;51.128;4.220;2023-04-05T08:59:09;8.80;99.90
41324;DHT22;27073;51.128;4.220;2023-04-05T09:01:38;9.00;99.90
41324;DHT22;27073;51.128;4.220;2023-04-05T09:04:08;9.10;93.70
41324;DHT22;27073;51.128;4.220;2023-04-05T09:06:36;9.10;99.90
41324;DHT22;27073;51.128;4.220;2023-04-05T09:09:06;9.20;54.80
41324;DHT22;27073;51.128;4.220;2023-04-05T09:11:33;9.30;99.90
41324;DHT22;27073;51.128;4.220;2023-04-05T09:14:02;9.20;1.00
41324;DHT22;27073;51.128;4.220;2023-04-05T09:16:33;9.40;25.30
41324;DHT22;27073;51.128;4.220;2023-04-05T09:19:01;9.60;99.90
41324;DHT22;27073;51.128;4.220;2023-04-05T09:21:27;9.60;99.90
41324;DHT22;27073;51.128;4.220;2023-04-05T09:23:54;9.60;99.90
41324;DHT22;27073;51.128;4.220;2023-04-05T09:26:24;9.60;95.20
41324;DHT22;27073;51.128;4.220;2023-04-05T09:28:57;9.80;99.90
41324;DHT22;27073;51.128;4.220;2023-04-05T09:31:33;10.10;99.90
41324;DHT22;27073;51.128;4.220;2023-04-05T09:34:02;10.30;99.90
41324;DHT22;27073;51.128;4.220;2023-04-05T09:36:27;10.30;99.90
41324;DHT22;27073;51.128;4.220;2023-04-05T09:39:06;10.30;89.60
41324;DHT22;27073;51.128;4.220;2023-04-05T09:41:33;10.50;51.30
41324;DHT22;27073;51.128;4.220;2023-04-05T09:43:59;10.50;1.00
41324;DHT22;27073;51.128;4.220;2023-04-05T09:48:56;10.50;99.90
41324;DHT22;27073;51.128;4.220;2023-04-05T09:51:22;10.30;99.90
41324;DHT22;27073;51.128;4.220;2023-04-05T09:56:27;10.40;99.90
41324;DHT22;27073;51.128;4.220;2023-04-05T09:58:58;10.40;99.90
41324;DHT22;27073;51.128;4.220;2023-04-05T10:01:29;10.60;1.00
41324;DHT22;27073;51.128;4.220;2023-04-05T10:03:57;10.60;99.90
41324;DHT22;27073;51.128;4.220;2023-04-05T10:06:25;10.70;1.00
41324;DHT22;27073;51.128;4.220;2023-04-05T10:08:58;10.90;1.00
41324;DHT22;27073;51.128;4.220;2023-04-05T10:11:25;11.00;99.90
41324;DHT22;27073;51.128;4.220;2023-04-05T10:13:52;11.00;99.90
41324;DHT22;27073;51.128;4.220;2023-04-05T10:16:20;11.10;99.90
41324;DHT22;27073;51.128;4.220;2023-04-05T10:18:50;11.20;99.90
41324;DHT22;27073;51.128;4.220;2023-04-05T10:21:20;10.80;99.90
41324;DHT22;27073;51.128;4.220;2023-04-05T10:24:04;10.60;99.90
41324;DHT22;27073;51.128;4.220;2023-04-05T10:26:44;10.50;99.90
41324;DHT22;27073;51.128;4.220;2023-04-05T10:29:18;10.50;99.90
41324;DHT22;27073;51.128;4.220;2023-04-05T10:31:49;10.60;99.90
41324;DHT22;27073;51.128;4.220;2023-04-05T10:34:23;10.70;99.90
41324;DHT22;27073;51.128;4.220;2023-04-05T10:37:00;11.00;99.90
41324;DHT22;27073;51.128;4.220;2023-04-05T10:39:45;11.10;99.90
41324;DHT22;27073;51.128;4.220;2023-04-05T10:45:08;11.40;99.90
41324;DHT22;27073;51.128;4.220;2023-04-05T10:50:31;11.60;99.90
41324;DHT22;27073;51.128;4.220;2023-04-05T10:52:58;11.60;99.90
41324;DHT22;27073;51.128;4.220;2023-04-05T10:55:25;11.60;99.90
41324;DHT22;27073;51.128;4.220;2023-04-05T10:57:58;11.70;99.90
41324;DHT22;27073;51.128;4.220;2023-04-05T11:00:24;11.80;99.90
41324;DHT22;27073;51.128;4.220;2023-04-05T11:02:54;11.70;99.90
41324;DHT22;27073;51.128;4.220;2023-04-05T11:05:35;11.50;99.90
41324;DHT22;27073;51.128;4.220;2023-04-05T11:08:07;11.70;99.90
41324;DHT22;27073;51.128;4.220;2023-04-05T11:10:35;11.90;99.90
41324;DHT22;27073;51.128;4.220;2023-04-05T11:13:02;11.90;99.90
41324;DHT22;27073;51.128;4.220;2023-04-05T11:15:29;11.90;99.90
41324;DHT22;27073;51.128;4.220;2023-04-05T11:18:28;11.70;99.90
41324;DHT22;27073;51.128;4.220;2023-04-05T11:21:05;12.00;99.90
41324;DHT22;27073;51.128;4.220;2023-04-05T11:23:31;12.00;99.90
41324;DHT22;27073;51.128;4.220;2023-04-05T11:26:04;11.90;99.90
41324;DHT22;27073;51.128;4.220;2023-04-05T11:30:56;12.20;99.90
41324;DHT22;27073;51.128;4.220;2023-04-05T11:36:09;12.60;99.90
41324;DHT22;27073;51.128;4.220;2023-04-05T11:38:36;12.40;97.10
41324;DHT22;27073;51.128;4.220;2023-04-05T11:41:22;12.20;74.00
41324;DHT22;27073;51.128;4.220;2023-04-05T11:43:49;12.10;88.70
41324;DHT22;27073;51.128;4.220;2023-04-05T11:46:17;12.10;82.40
41324;DHT22;27073;51.128;4.220;2023-04-05T11:48:49;12.30;91.20
41324;DHT22;27073;51.128;4.220;2023-04-05T11:51:15;12.50;84.00
41324;DHT22;27073;51.128;4.220;2023-04-05T11:53:45;12.80;94.20
41324;DHT22;27073;51.128;4.220;2023-04-05T11:56:11;12.90;46.30
41324;DHT22;27073;51.128;4.220;2023-04-05T11:58:41;13.10;35.20
41324;DHT22;27073;51.128;4.220;2023-04-05T12:01:08;12.90;30.30
41324;DHT22;27073;51.128;4.220;2023-04-05T12:03:35;13.10;34.90
41324;DHT22;27073;51.128;4.220;2023-04-05T12:06:03;13.40;26.50
41324;DHT22;27073;51.128;4.220;2023-04-05T12:08:43;13.00;11.90
41324;DHT22;27073;51.128;4.220;2023-04-05T12:11:16;12.80;16.00
41324;DHT22;27073;51.128;4.220;2023-04-05T12:13:47;13.10;29.30
41324;DHT22;27073;51.128;4.220;2023-04-05T12:16:14;13.50;29.50
41324;DHT22;27073;51.128;4.220;2023-04-05T12:18:40;13.70;25.80
41324;DHT22;27073;51.128;4.220;2023-04-05T12:21:07;13.80;10.60
41324;DHT22;27073;51.128;4.220;2023-04-05T12:23:34;13.60;1.00
41324;DHT22;27073;51.128;4.220;2023-04-05T12:26:01;13.50;1.00
41324;DHT22;27073;51.128;4.220;2023-04-05T12:28:57;13.60;1.00
41324;DHT22;27073;51.128;4.220;2023-04-05T12:31:39;13.60;1.00
41324;DHT22;27073;51.128;4.220;2023-04-05T12:34:06;13.70;1.00
41324;DHT22;27073;51.128;4.220;2023-04-05T12:36:32;13.50;1.00
41324;DHT22;27073;51.128;4.220;2023-04-05T12:38:58;13.10;1.00
41324;DHT22;27073;51.128;4.220;2023-04-05T12:41:29;13.30;1.00
41324;DHT22;27073;51.128;4.220;2023-04-05T12:43:55;13.50;1.00
41324;DHT22;27073;51.128;4.220;2023-04-05T12:46:42;13.50;1.00
41324;DHT22;27073;51.128;4.220;2023-04-05T12:49:14;13.70;1.00
41324;DHT22;27073;51.128;4.220;2023-04-05T12:51:44;13.90;1.00
41324;DHT22;27073;51.128;4.220;2023-04-05T12:54:21;13.90;1.00
41324;DHT22;27073;51.128;4.220;2023-04-05T12:56:51;14.00;1.00
41324;DHT22;27073;51.128;4.220;2023-04-05T12:59:19;14.40;1.00
41324;DHT22;27073;51.128;4.220;2023-04-05T13:01:45;14.70;1.00
41324;DHT22;27073;51.128;4.220;2023-04-05T13:04:11;14.70;1.00
41324;DHT22;27073;51.128;4.220;2023-04-05T13:06:36;14.70;1.00
41324;DHT22;27073;51.128;4.220;2023-04-05T13:09:02;14.60;1.00
41324;DHT22;27073;51.128;4.220;2023-04-05T13:11:28;14.70;1.00
41324;DHT22;27073;51.128;4.220;2023-04-05T13:13:54;15.10;1.00
41324;DHT22;27073;51.128;4.220;2023-04-05T13:16:20;15.50;1.00
41324;DHT22;27073;51.128;4.220;2023-04-05T13:18:46;15.80;1.00
41324;DHT22;27073;51.128;4.220;2023-04-05T13:21:12;15.90;1.00
41324;DHT22;27073;51.128;4.220;2023-04-05T13:23:38;15.20;99.90
41324;DHT22;27073;51.128;4.220;2023-04-05T13:26:05;15.10;99.90
41324;DHT22;27073;51.128;4.220;2023-04-05T13:28:34;15.00;99.90
41324;DHT22;27073;51.128;4.220;2023-04-05T13:31:02;15.30;99.90
41324;DHT22;27073;51.128;4.220;2023-04-05T13:33:27;15.40;99.90
41324;DHT22;27073;51.128;4.220;2023-04-05T13:35:53;15.70;99.90
41324;DHT22;27073;51.128;4.220;2023-04-05T13:38:19;16.10;99.90
41324;DHT22;27073;51.128;4.220;2023-04-05T13:40:46;15.90;99.90
41324;DHT22;27073;51.128;4.220;2023-04-05T13:43:12;16.00;99.90
41324;DHT22;27073;51.128;4.220;2023-04-05T13:45:37;16.20;99.90
41324;DHT22;27073;51.128;4.220;2023-04-05T13:48:03;16.10;99.90
41324;DHT22;27073;51.128;4.220;2023-04-05T13:50:29;16.00;99.90
41324;DHT22;27073;51.128;4.220;2023-04-05T13:52:55;15.70;99.90
41324;DHT22;27073;51.128;4.220;2023-04-05T13:55:20;15.50;99.90
41324;DHT22;27073;51.128;4.220;2023-04-05T13:57:46;15.30;99.90
41324;DHT22;27073;51.128;4.220;2023-04-05T14:00:12;15.70;99.90
41324;DHT22;27073;51.128;4.220;2023-04-05T14:02:38;15.60;99.90
41324;DHT22;27073;51.128;4.220;2023-04-05T14:05:05;15.90;99.90
41324;DHT22;27073;51.128;4.220;2023-04-05T14:07:31;15.70;99.90
41324;DHT22;27073;51.128;4.220;2023-04-05T14:09:57;16.10;99.90
41324;DHT22;27073;51.128;4.220;2023-04-05T14:12:23;16.40;99.90
41324;DHT22;27073;51.128;4.220;2023-04-05T14:14:50;16.60;99.90
41324;DHT22;27073;51.128;4.220;2023-04-05T14:17:16;16.60;99.90
41324;DHT22;27073;51.128;4.220;2023-04-05T14:19:42;16.50;99.90
41324;DHT22;27073;51.128;4.220;2023-04-05T14:22:08;16.60;99.90
41324;DHT22;27073;51.128;4.220;2023-04-05T14:24:34;16.70;99.90
41324;DHT22;27073;51.128;4.220;2023-04-05T14:27:00;16.90;99.90
41324;DHT22;27073;51.128;4.220;2023-04-05T14:29:27;16.50;99.90
41324;DHT22;27073;51.128;4.220;2023-04-05T14:31:54;16.70;99.90
41324;DHT22;27073;51.128;4.220;2023-04-05T14:34:20;17.30;99.90
41324;DHT22;27073;51.128;4.220;2023-04-05T14:36:45;17.70;99.90
41324;DHT22;27073;51.128;4.220;2023-04-05T14:39:11;18.40;99.90
41324;DHT22;27073;51.128;4.220;2023-04-05T14:41:37;18.50;99.90
41324;DHT22;27073;51.128;4.220;2023-04-05T14:44:03;18.90;99.90
41324;DHT22;27073;51.128;4.220;2023-04-05T14:46:29;19.80;99.90
41324;DHT22;27073;51.128;4.220;2023-04-05T14:48:55;19.10;99.90
41324;DHT22;27073;51.128;4.220;2023-04-05T14:51:20;21.00;99.90
41324;DHT22;27073;51.128;4.220;2023-04-05T14:53:46;22.10;99.90
41324;DHT22;27073;51.128;4.220;2023-04-05T14:56:12;21.80;99.90
41324;DHT22;27073;51.128;4.220;2023-04-05T14:58:38;22.70;99.90
41324;DHT22;27073;51.128;4.220;2023-04-05T15:01:03;22.60;99.90
41324;DHT22;27073;51.128;4.220;2023-04-05T15:03:30;21.60;99.90
41324;DHT22;27073;51.128;4.220;2023-04-05T15:05:56;22.00;99.90
41324;DHT22;27073;51.128;4.220;2023-04-05T15:08:22;22.30;99.90
41324;DHT22;27073;51.128;4.220;2023-04-05T15:10:48;22.10;99.90
41324;DHT22;27073;51.128;4.220;2023-04-05T15:13:14;22.10;99.90
41324;DHT22;27073;51.128;4.220;2023-04-05T15:15:40;21.60;99.90
41324;DHT22;27073;51.128;4.220;2023-04-05T15:18:06;21.40;99.90
41324;DHT22;27073;51.128;4.220;2023-04-05T15:20:35;21.70;99.90
41324;DHT22;27073;51.128;4.220;2023-04-05T15:23:01;22.50;99.90
41324;DHT22;27073;51.128;4.220;2023-04-05T15:25:27;21.80;99.90
41324;DHT22;27073;51.128;4.220;2023-04-05T15:27:53;22.60;99.90
41324;DHT22;27073;51.128;4.220;2023-04-05T15:30:19;21.00;99.90
41324;DHT22;27073;51.128;4.220;2023-04-05T15:32:46;20.90;99.90
41324;DHT22;27073;51.128;4.220;2023-04-05T15:35:12;21.40;99.90
41324;DHT22;27073;51.128;4.220;2023-04-05T15:37:38;21.40;99.90
41324;DHT22;27073;51.128;4.220;2023-04-05T15:40:05;21.70;99.90
41324;DHT22;27073;51.128;4.220;2023-04-05T15:42:33;20.00;99.90
41324;DHT22;27073;51.128;4.220;2023-04-05T15:44:59;20.20;99.90
41324;DHT22;27073;51.128;4.220;2023-04-05T15:47:24;20.20;99.90
41324;DHT22;27073;51.128;4.220;2023-04-05T15:49:50;21.60;99.90
41324;DHT22;27073;51.128;4.220;2023-04-05T15:52:16;22.50;99.90
41324;DHT22;27073;51.128;4.220;2023-04-05T15:54:42;22.80;99.90
41324;DHT22;27073;51.128;4.220;2023-04-05T15:57:11;23.10;99.90
41324;DHT22;27073;51.128;4.220;2023-04-05T15:59:37;23.90;99.90
41324;DHT22;27073;51.128;4.220;2023-04-05T16:02:03;23.40;99.90
41324;DHT22;27073;51.128;4.220;2023-04-05T16:04:29;23.80;99.90
41324;DHT22;27073;51.128;4.220;2023-04-05T16:06:55;24.00;99.90
41324;DHT22;27073;51.128;4.220;2023-04-05T16:09:21;21.30;99.90
41324;DHT22;27073;51.128;4.220;2023-04-05T16:11:47;22.60;99.90
41324;DHT22;27073;51.128;4.220;2023-04-05T16:14:13;22.70;99.90
41324;DHT22;27073;51.128;4.220;2023-04-05T16:16:39;22.90;99.90
41324;DHT22;27073;51.128;4.220;2023-04-05T16:19:05;22.00;99.90
41324;DHT22;27073;51.128;4.220;2023-04-05T16:21:32;23.00;99.90
41324;DHT22;27073;51.128;4.220;2023-04-05T16:23:58;23.50;99.90
41324;DHT22;27073;51.128;4.220;2023-04-05T16:26:29;23.80;99.90
41324;DHT22;27073;51.128;4.220;2023-04-05T16:28:55;23.20;99.90